createdAt,value
2023-02-26T00:00:37.958Z,1.67
2023-02-26T00:01:40.371Z,1.67
2023-02-26T00:02:46.226Z,1.66
2023-02-26T00:03:50.293Z,1.59
2023-02-26T00:04:53.169Z,1.51
2023-02-26T00:06:01.057Z,1.51
2023-02-26T00:07:05.501Z,1.55
2023-02-26T00:08:08.087Z,1.55
2023-02-26T00:09:10.357Z,1.53
2023-02-26T00:10:15.993Z,1.53
2023-02-26T00:11:19.496Z,1.47
2023-02-26T00:12:22.324Z,1.49
2023-02-26T00:13:25.596Z,1.54
2023-02-26T00:14:29.270Z,1.46
2023-02-26T00:15:32.412Z,1.48
2023-02-26T00:16:36.251Z,1.47
2023-02-26T00:17:57.938Z,1.47
2023-02-26T00:19:05.663Z,1.42
2023-02-26T00:20:11.607Z,1.39
2023-02-26T00:21:17.676Z,1.48
2023-02-26T00:22:22.966Z,1.47
2023-02-26T00:23:25.897Z,1.42
2023-02-26T00:24:28.338Z,1.35
2023-02-26T00:25:32.463Z,1.35
2023-02-26T00:26:35.384Z,1.34
2023-02-26T00:27:38.351Z,1.37
2023-02-26T00:28:41.498Z,1.32
2023-02-26T00:29:44.985Z,1.33
2023-02-26T00:30:48.674Z,1.31
2023-02-26T00:31:51.970Z,1.31
2023-02-26T00:32:55.750Z,1.24
2023-02-26T00:34:00.079Z,1.25
2023-02-26T00:35:03.588Z,1.29
2023-02-26T00:36:23.856Z,1.26
2023-02-26T00:37:47.222Z,1.26
2023-02-26T00:38:58.906Z,1.26
2023-02-26T00:40:05.947Z,1.30
2023-02-26T00:41:10.644Z,1.28
2023-02-26T00:42:14.945Z,1.34
2023-02-26T00:43:25.933Z,1.35
2023-02-26T00:44:30.758Z,1.33
2023-02-26T00:45:36.028Z,1.38
2023-02-26T00:47:05.360Z,1.38
2023-02-26T00:48:32.496Z,1.47
2023-02-26T00:50:01.327Z,1.67
2023-02-26T00:51:26.968Z,1.63
2023-02-26T00:52:40.437Z,1.67
2023-02-26T00:53:55.013Z,1.75
2023-02-26T00:54:58.724Z,1.71
2023-02-26T00:56:01.176Z,1.73
2023-02-26T00:57:05.405Z,1.72
2023-02-26T00:58:07.881Z,1.69
2023-02-26T00:59:10.125Z,1.67
2023-02-26T01:00:13.664Z,1.63
2023-02-26T01:01:16.096Z,1.68
2023-02-26T01:02:18.263Z,1.68
2023-02-26T01:03:20.905Z,1.66
2023-02-26T01:04:24.304Z,1.65
2023-02-26T01:05:27.523Z,1.48
2023-02-26T01:06:33.816Z,1.54
2023-02-26T01:07:42.657Z,1.49
2023-02-26T01:09:00.365Z,1.47
2023-02-26T01:10:03.714Z,1.57
2023-02-26T01:11:06.577Z,1.58
2023-02-26T01:12:12.680Z,1.55
2023-02-26T01:13:17.689Z,1.58
2023-02-26T01:14:20.947Z,1.54
2023-02-26T01:15:27.085Z,1.54
2023-02-26T01:16:33.491Z,1.48
2023-02-26T01:17:56.221Z,1.39
2023-02-26T01:19:07.866Z,1.31
2023-02-26T01:20:21.565Z,1.32
2023-02-26T01:21:27.375Z,1.38
2023-02-26T01:22:51.811Z,1.35
2023-02-26T01:23:54.182Z,1.30
2023-02-26T01:25:12.416Z,1.27
2023-02-26T01:26:25.289Z,1.34
2023-02-26T01:27:28.150Z,1.32
2023-02-26T01:28:31.649Z,1.37
2023-02-26T01:29:34.996Z,1.50
2023-02-26T01:30:38.772Z,1.50
2023-02-26T01:31:57.621Z,1.42
2023-02-26T01:33:04.482Z,1.44
2023-02-26T01:34:13.342Z,1.41
2023-02-26T01:35:39.385Z,1.38
2023-02-26T01:36:45.468Z,1.39
2023-02-26T01:38:03.622Z,1.33
2023-02-26T01:40:59.735Z,1.39
2023-02-26T01:42:20.797Z,1.22
2023-02-26T01:43:26.734Z,1.22
2023-02-26T01:44:35.661Z,1.25
2023-02-26T01:45:42.492Z,1.26
2023-02-26T01:47:03.417Z,1.27
2023-02-26T01:48:09.339Z,1.26
2023-02-26T01:49:18.591Z,1.25
2023-02-26T01:50:31.639Z,1.23
2023-02-26T01:51:49.881Z,1.23
2023-02-26T01:53:04.800Z,1.33
2023-02-26T01:54:08.913Z,1.35
2023-02-26T01:55:11.693Z,1.34
2023-02-26T01:56:17.634Z,1.34
2023-02-26T01:57:23.069Z,1.36
2023-02-26T01:58:30.478Z,1.32
2023-02-26T01:59:36.721Z,1.28
2023-02-26T02:00:39.420Z,1.28
2023-02-26T02:01:41.835Z,1.34
2023-02-26T02:02:45.916Z,1.35
2023-02-26T02:03:51.261Z,1.37
2023-02-26T02:04:53.983Z,1.36
2023-02-26T02:06:06.314Z,1.32
2023-02-26T02:07:08.966Z,1.32
2023-02-26T02:08:12.492Z,1.39
2023-02-26T02:09:14.791Z,1.36
2023-02-26T02:10:19.024Z,1.38
2023-02-26T02:11:22.111Z,1.38
2023-02-26T02:12:31.726Z,1.48
2023-02-26T02:13:49.897Z,1.44
2023-02-26T02:15:17.379Z,1.43
2023-02-26T02:17:52.287Z,1.48
2023-02-26T02:19:31.549Z,1.35
2023-02-26T02:20:49.560Z,1.32
2023-02-26T02:24:35.911Z,1.28
2023-02-26T02:25:55.292Z,1.22
2023-02-26T02:27:20.105Z,1.21
2023-02-26T02:28:55.360Z,1.24
2023-02-26T02:30:06.858Z,1.22
2023-02-26T02:33:52.993Z,1.24
2023-02-26T02:35:01.974Z,1.23
2023-02-26T02:36:08.041Z,1.24
2023-02-26T02:37:20.397Z,1.25
2023-02-26T02:38:44.996Z,1.23
2023-02-26T02:39:54.748Z,1.21
2023-02-26T02:41:05.683Z,1.22
2023-02-26T02:42:27.979Z,1.27
2023-02-26T02:43:33.936Z,1.22
2023-02-26T02:44:39.594Z,1.24
2023-02-26T02:45:51.590Z,1.40
2023-02-26T02:46:56.944Z,1.34
2023-02-26T02:48:03.913Z,1.30
2023-02-26T02:49:22.104Z,1.31
2023-02-26T02:50:37.071Z,1.27
2023-02-26T02:51:43.017Z,1.19
2023-02-26T02:52:58.302Z,1.21
2023-02-26T02:54:10.304Z,1.21
2023-02-26T02:55:19.585Z,1.18
2023-02-26T02:56:38.456Z,1.17
2023-02-26T02:57:44.493Z,1.19
2023-02-26T02:58:50.525Z,1.19
2023-02-26T02:59:56.799Z,1.19
2023-02-26T03:01:02.911Z,1.18
2023-02-26T03:02:27.243Z,1.16
2023-02-26T03:03:42.392Z,1.16
2023-02-26T03:04:45.904Z,1.20
2023-02-26T03:05:49.393Z,1.18
2023-02-26T03:06:52.117Z,1.15
2023-02-26T03:09:14.179Z,1.31
2023-02-26T03:10:17.766Z,1.21
2023-02-26T03:11:20.570Z,1.19
2023-02-26T03:12:26.688Z,1.18
2023-02-26T03:13:29.003Z,1.13
2023-02-26T03:14:33.672Z,1.16
2023-02-26T03:15:50.127Z,1.14
2023-02-26T03:17:01.706Z,1.11
2023-02-26T03:18:14.752Z,1.17
2023-02-26T03:19:33.825Z,1.22
2023-02-26T03:20:41.389Z,1.23
2023-02-26T03:21:56.077Z,1.29
2023-02-26T03:23:16.153Z,1.25
2023-02-26T03:24:28.897Z,1.26
2023-02-26T03:25:53.828Z,1.28
2023-02-26T03:27:10.412Z,1.27
2023-02-26T03:28:26.814Z,1.29
2023-02-26T03:29:42.279Z,1.21
2023-02-26T03:31:00.601Z,1.20
2023-02-26T03:32:10.068Z,1.19
2023-02-26T03:33:25.472Z,1.22
2023-02-26T03:34:40.955Z,1.21
2023-02-26T03:36:05.363Z,1.22
2023-02-26T03:37:14.672Z,1.24
2023-02-26T03:39:40.718Z,1.36
2023-02-26T03:40:55.799Z,1.20
2023-02-26T03:42:08.359Z,1.17
2023-02-26T03:43:34.696Z,1.17
2023-02-26T03:44:47.797Z,1.18
2023-02-26T03:45:54.826Z,1.13
2023-02-26T03:47:00.954Z,1.07
2023-02-26T03:48:07.371Z,1.07
2023-02-26T03:49:13.377Z,1.09
2023-02-26T03:50:23.446Z,1.07
2023-02-26T03:51:29.916Z,1.11
2023-02-26T03:52:40.509Z,1.14
2023-02-26T03:53:50.930Z,1.13
2023-02-26T03:55:04.767Z,1.10
2023-02-26T03:56:24.977Z,1.15
2023-02-26T03:57:29.786Z,1.16
2023-02-26T03:58:46.250Z,1.10
2023-02-26T03:59:51.049Z,1.09
2023-02-26T04:01:09.346Z,1.09
2023-02-26T04:02:15.203Z,1.08
2023-02-26T04:03:21.587Z,1.05
2023-02-26T04:04:36.614Z,1.06
2023-02-26T04:05:42.344Z,1.09
2023-02-26T04:06:46.147Z,1.13
2023-02-26T04:07:49.762Z,1.10
2023-02-26T04:08:53.572Z,1.06
2023-02-26T04:09:56.819Z,1.06
2023-02-26T04:11:13.441Z,1.06
2023-02-26T04:12:22.808Z,1.08
2023-02-26T04:13:26.262Z,1.10
2023-02-26T04:14:28.923Z,1.06
2023-02-26T04:15:31.696Z,1.06
2023-02-26T04:16:34.198Z,1.08
2023-02-26T04:17:36.679Z,1.08
2023-02-26T04:18:40.214Z,1.12
2023-02-26T04:19:43.053Z,1.13
2023-02-26T04:20:45.861Z,1.09
2023-02-26T04:21:48.277Z,1.08
2023-02-26T04:22:51.144Z,1.08
2023-02-26T04:23:56.145Z,1.13
2023-02-26T04:24:58.416Z,1.16
2023-02-26T04:26:01.142Z,1.13
2023-02-26T04:27:04.884Z,1.10
2023-02-26T04:28:08.303Z,1.11
2023-02-26T04:29:11.124Z,1.11
2023-02-26T04:30:14.046Z,1.15
2023-02-26T04:31:16.459Z,1.15
2023-02-26T04:32:19.564Z,1.13
2023-02-26T04:33:22.696Z,1.07
2023-02-26T04:34:25.153Z,1.06
2023-02-26T04:35:28.678Z,1.09
2023-02-26T04:36:33.074Z,1.08
2023-02-26T04:37:35.604Z,1.07
2023-02-26T04:38:38.545Z,1.11
2023-02-26T04:39:41.317Z,1.06
2023-02-26T04:40:44.354Z,1.06
2023-02-26T04:41:48.226Z,1.06
2023-02-26T04:42:51.074Z,1.10
2023-02-26T04:43:55.462Z,1.10
2023-02-26T04:45:00.009Z,1.10
2023-02-26T04:46:03.894Z,1.10
2023-02-26T04:47:07.343Z,1.08
2023-02-26T04:48:10.358Z,1.09
2023-02-26T04:49:12.615Z,1.11
2023-02-26T04:50:17.470Z,1.09
2023-02-26T04:51:22.419Z,1.07
2023-02-26T04:52:27.238Z,1.05
2023-02-26T04:53:30.365Z,1.05
2023-02-26T04:54:32.896Z,1.11
2023-02-26T04:55:36.733Z,1.15
2023-02-26T04:56:41.089Z,1.16
2023-02-26T04:57:43.529Z,1.21
2023-02-26T04:58:46.197Z,1.23
2023-02-26T04:59:50.522Z,1.24
2023-02-26T05:00:54.811Z,1.18
2023-02-26T05:01:57.546Z,1.14
2023-02-26T05:03:00.477Z,1.06
2023-02-26T05:04:03.030Z,1.09
2023-02-26T05:05:07.703Z,1.14
2023-02-26T05:06:10.294Z,1.20
2023-02-26T05:07:14.110Z,1.29
2023-02-26T05:08:17.785Z,1.36
2023-02-26T05:09:20.453Z,1.46
2023-02-26T05:10:23.645Z,1.46
2023-02-26T05:11:27.170Z,1.64
2023-02-26T05:12:29.842Z,1.69
2023-02-26T05:13:32.342Z,1.66
2023-02-26T05:14:35.205Z,1.65
2023-02-26T05:15:37.642Z,1.62
2023-02-26T05:16:40.070Z,1.55
2023-02-26T05:17:43.124Z,1.55
2023-02-26T05:18:46.350Z,1.52
2023-02-26T05:19:49.387Z,1.44
2023-02-26T05:20:56.705Z,1.43
2023-02-26T05:21:59.092Z,1.52
2023-02-26T05:23:01.854Z,1.46
2023-02-26T05:24:04.808Z,1.55
2023-02-26T05:25:08.832Z,1.53
2023-02-26T05:26:11.732Z,1.52
2023-02-26T05:27:14.569Z,1.57
2023-02-26T05:28:19.314Z,1.57
2023-02-26T05:29:22.179Z,1.54
2023-02-26T05:30:25.691Z,1.58
2023-02-26T05:31:30.429Z,1.64
2023-02-26T05:32:33.364Z,1.66
2023-02-26T05:33:35.949Z,1.65
2023-02-26T05:34:38.801Z,1.73
2023-02-26T05:35:41.267Z,1.77
2023-02-26T05:36:44.349Z,1.76
2023-02-26T05:37:46.669Z,1.85
2023-02-26T05:38:49.002Z,1.92
2023-02-26T05:39:51.491Z,1.99
2023-02-26T05:40:57.054Z,2.05
2023-02-26T05:41:59.351Z,2.12
2023-02-26T05:43:02.302Z,2.25
2023-02-26T05:44:04.709Z,2.37
2023-02-26T05:45:08.560Z,2.39
2023-02-26T05:46:12.845Z,2.49
2023-02-26T05:47:17.366Z,2.53
2023-02-26T05:48:19.930Z,2.66
2023-02-26T05:49:22.737Z,2.62
2023-02-26T05:50:25.223Z,2.63
2023-02-26T05:51:28.711Z,2.52
2023-02-26T05:52:31.405Z,2.70
2023-02-26T05:53:34.345Z,2.70
2023-02-26T05:54:37.384Z,2.73
2023-02-26T05:55:39.853Z,2.53
2023-02-26T05:56:42.724Z,2.49
2023-02-26T05:57:45.173Z,2.44
2023-02-26T05:58:47.663Z,2.37
2023-02-26T05:59:50.805Z,2.22
2023-02-26T06:00:53.743Z,2.05
2023-02-26T06:01:56.425Z,1.95
2023-02-26T06:02:59.431Z,1.94
2023-02-26T06:04:01.892Z,1.87
2023-02-26T06:05:05.681Z,1.81
2023-02-26T06:06:08.843Z,1.83
2023-02-26T06:07:11.161Z,1.81
2023-02-26T06:08:15.106Z,1.77
2023-02-26T06:09:17.611Z,1.74
2023-02-26T06:10:20.326Z,1.71
2023-02-26T06:11:25.476Z,1.71
2023-02-26T06:12:28.073Z,1.71
2023-02-26T06:13:30.421Z,1.73
2023-02-26T06:14:34.461Z,1.74
2023-02-26T06:15:36.973Z,1.70
2023-02-26T06:16:40.056Z,1.75
2023-02-26T06:17:42.606Z,1.80
2023-02-26T06:18:44.972Z,1.83
2023-02-26T06:19:47.312Z,1.89
2023-02-26T06:20:50.035Z,1.84
2023-02-26T06:21:52.575Z,1.69
2023-02-26T06:22:54.989Z,1.75
2023-02-26T06:23:57.761Z,1.70
2023-02-26T06:25:00.066Z,1.72
2023-02-26T06:26:03.145Z,1.77
2023-02-26T06:27:06.361Z,1.77
2023-02-26T06:28:09.052Z,1.81
2023-02-26T06:29:15.155Z,1.91
2023-02-26T06:30:19.468Z,1.97
2023-02-26T06:31:21.886Z,1.90
2023-02-26T06:32:24.279Z,1.91
2023-02-26T06:33:27.033Z,1.92
2023-02-26T06:34:29.647Z,1.98
2023-02-26T06:35:32.001Z,1.99
2023-02-26T06:36:34.846Z,2.05
2023-02-26T06:37:37.285Z,2.03
2023-02-26T06:38:40.799Z,2.03
2023-02-26T06:39:43.175Z,2.10
2023-02-26T06:40:48.496Z,2.14
2023-02-26T06:41:51.263Z,2.11
2023-02-26T06:42:53.782Z,2.02
2023-02-26T06:43:56.608Z,1.99
2023-02-26T06:44:58.944Z,2.01
2023-02-26T06:46:02.298Z,2.06
2023-02-26T06:47:06.246Z,2.19
2023-02-26T06:48:15.336Z,2.13
2023-02-26T06:49:20.105Z,2.13
2023-02-26T06:50:22.517Z,2.11
2023-02-26T06:51:24.881Z,2.15
2023-02-26T06:52:27.236Z,2.20
2023-02-26T06:53:30.175Z,2.01
2023-02-26T06:54:33.133Z,1.94
2023-02-26T06:55:37.496Z,2.01
2023-02-26T06:56:39.625Z,2.11
2023-02-26T06:57:41.980Z,2.14
2023-02-26T06:58:44.363Z,2.18
2023-02-26T06:59:46.821Z,1.97
2023-02-26T07:00:49.188Z,1.90
2023-02-26T07:01:51.567Z,2.01
2023-02-26T07:02:53.837Z,2.15
2023-02-26T07:03:56.490Z,1.98
2023-02-26T07:04:59.072Z,1.93
2023-02-26T07:06:23.681Z,1.96
2023-02-26T07:07:06.599Z,2.00
2023-02-26T07:08:09.630Z,1.99
2023-02-26T07:09:13.302Z,2.08
2023-02-26T07:10:16.896Z,2.05
2023-02-26T07:11:19.290Z,2.06
2023-02-26T07:12:21.752Z,2.05
2023-02-26T07:13:24.714Z,2.06
2023-02-26T07:14:27.209Z,2.19
2023-02-26T07:15:30.057Z,2.11
2023-02-26T07:16:33.462Z,2.07
2023-02-26T07:17:37.379Z,2.03
2023-02-26T07:18:39.908Z,2.00
2023-02-26T07:19:43.811Z,2.03
2023-02-26T07:20:50.765Z,2.14
2023-02-26T07:21:54.448Z,2.20
2023-02-26T07:22:57.050Z,2.30
2023-02-26T07:23:59.600Z,2.24
2023-02-26T07:25:02.780Z,2.29
2023-02-26T07:26:05.914Z,2.35
2023-02-26T07:27:08.546Z,2.38
2023-02-26T07:28:11.080Z,2.41
2023-02-26T07:29:13.908Z,2.23
2023-02-26T07:30:16.996Z,2.28
2023-02-26T07:31:19.281Z,2.35
2023-02-26T07:32:22.071Z,2.31
2023-02-26T07:33:26.068Z,2.38
2023-02-26T07:34:28.675Z,2.43
2023-02-26T07:35:31.010Z,2.38
2023-02-26T07:36:33.350Z,2.45
2023-02-26T07:37:36.124Z,2.57
2023-02-26T07:38:38.340Z,2.64
2023-02-26T07:39:41.051Z,2.73
2023-02-26T07:40:44.572Z,2.81
2023-02-26T07:41:47.537Z,2.65
2023-02-26T07:42:50.946Z,2.73
2023-02-26T07:43:54.642Z,2.81
2023-02-26T07:44:56.883Z,2.82
2023-02-26T07:47:01.917Z,2.98
2023-02-26T07:48:04.825Z,3.01
2023-02-26T07:49:07.044Z,2.96
2023-02-26T07:50:12.013Z,2.94
2023-02-26T07:51:20.981Z,2.99
2023-02-26T07:52:23.396Z,3.00
2023-02-26T07:53:26.484Z,2.98
2023-02-26T07:54:29.247Z,2.84
2023-02-26T07:55:31.684Z,2.83
2023-02-26T07:56:34.107Z,2.77
2023-02-26T07:57:36.438Z,2.75
2023-02-26T07:58:38.798Z,2.81
2023-02-26T07:59:41.137Z,2.86
2023-02-26T08:00:43.766Z,2.78
2023-02-26T08:01:46.236Z,2.86
2023-02-26T08:02:48.728Z,2.77
2023-02-26T08:03:50.914Z,2.65
2023-02-26T08:04:53.506Z,2.67
2023-02-26T08:05:56.567Z,2.69
2023-02-26T08:07:01.008Z,2.68
2023-02-26T08:08:03.431Z,2.76
2023-02-26T08:09:05.989Z,2.75
2023-02-26T08:10:11.317Z,2.76
2023-02-26T08:11:13.723Z,2.81
2023-02-26T08:12:16.122Z,2.91
2023-02-26T08:13:19.304Z,3.02
2023-02-26T08:14:22.239Z,3.15
2023-02-26T08:15:25.232Z,2.87
2023-02-26T08:16:28.681Z,2.83
2023-02-26T08:17:31.202Z,2.85
2023-02-26T08:18:34.977Z,2.99
2023-02-26T08:19:37.820Z,3.13
2023-02-26T08:20:40.450Z,3.14
2023-02-26T08:21:42.588Z,3.08
2023-02-26T08:22:44.806Z,3.08
2023-02-26T08:23:48.955Z,3.18
2023-02-26T08:24:51.799Z,3.34
2023-02-26T08:26:02.368Z,3.43
2023-02-26T08:27:05.876Z,3.39
2023-02-26T08:28:08.035Z,3.33
2023-02-26T08:29:10.268Z,3.19
2023-02-26T08:30:13.600Z,3.30
2023-02-26T08:31:16.485Z,3.51
2023-02-26T08:32:20.076Z,3.67
2023-02-26T08:33:25.676Z,3.67
2023-02-26T08:34:28.255Z,3.70
2023-02-26T08:35:30.399Z,3.66
2023-02-26T08:36:35.227Z,3.76
2023-02-26T08:37:38.466Z,3.76
2023-02-26T08:38:40.797Z,3.65
2023-02-26T08:39:43.132Z,3.63
2023-02-26T08:40:47.817Z,3.59
2023-02-26T08:41:50.231Z,3.62
2023-02-26T08:42:52.539Z,3.67
2023-02-26T08:43:55.289Z,3.67
2023-02-26T08:44:57.738Z,3.53
2023-02-26T08:46:00.175Z,3.55
2023-02-26T08:47:03.402Z,3.53
2023-02-26T08:48:06.099Z,3.52
2023-02-26T08:49:09.302Z,3.51
2023-02-26T08:50:12.602Z,3.58
2023-02-26T08:51:14.931Z,3.58
2023-02-26T08:52:17.800Z,3.41
2023-02-26T08:53:20.190Z,3.45
2023-02-26T08:54:23.891Z,3.35
2023-02-26T08:55:26.720Z,3.34
2023-02-26T08:56:29.160Z,3.56
2023-02-26T08:57:31.571Z,3.56
2023-02-26T08:58:33.871Z,3.62
2023-02-26T08:59:36.170Z,3.76
2023-02-26T09:00:38.830Z,3.84
2023-02-26T09:01:41.770Z,3.87
2023-02-26T09:02:45.311Z,3.68
2023-02-26T09:03:47.787Z,3.59
2023-02-26T09:04:50.188Z,3.66
2023-02-26T09:05:52.641Z,3.80
2023-02-26T09:06:55.086Z,3.66
2023-02-26T09:07:57.986Z,3.65
2023-02-26T09:09:00.407Z,3.45
2023-02-26T09:10:03.667Z,3.32
2023-02-26T09:11:06.181Z,3.46
2023-02-26T09:12:08.444Z,3.53
2023-02-26T09:13:10.841Z,3.62
2023-02-26T09:14:14.160Z,3.72
2023-02-26T09:15:17.488Z,3.80
2023-02-26T09:16:21.500Z,3.77
2023-02-26T09:17:25.777Z,3.89
2023-02-26T09:18:29.323Z,3.79
2023-02-26T09:19:31.733Z,3.70
2023-02-26T09:20:34.936Z,3.53
2023-02-26T09:21:38.400Z,3.55
2023-02-26T09:22:42.227Z,3.63
2023-02-26T09:23:44.898Z,3.75
2023-02-26T09:24:47.698Z,5.80
2023-02-26T09:25:55.492Z,5.91
2023-02-26T09:26:59.124Z,6.08
2023-02-26T09:28:02.684Z,5.74
2023-02-26T09:29:05.472Z,5.78
2023-02-26T09:30:08.939Z,5.68
2023-02-26T09:31:11.949Z,5.23
2023-02-26T09:32:14.767Z,5.40
2023-02-26T09:33:17.823Z,5.14
2023-02-26T09:34:23.041Z,4.89
2023-02-26T09:35:26.647Z,5.04
2023-02-26T09:36:31.056Z,5.28
2023-02-26T09:37:34.188Z,4.90
2023-02-26T09:38:37.727Z,5.39
2023-02-26T09:39:40.047Z,5.69
2023-02-26T09:42:09.625Z,5.68
2023-02-26T09:43:27.062Z,5.22
2023-02-26T09:44:33.658Z,5.19
2023-02-26T09:45:44.461Z,5.98
2023-02-26T09:47:17.662Z,6.47
2023-02-26T09:48:24.682Z,6.71
2023-02-26T09:49:37.846Z,6.49
2023-02-26T09:50:49.868Z,6.29
2023-02-26T09:51:56.174Z,5.65
2023-02-26T09:53:11.513Z,5.82
2023-02-26T09:54:20.224Z,5.81
2023-02-26T09:55:32.771Z,5.95
2023-02-26T09:56:38.212Z,5.48
2023-02-26T09:57:46.476Z,6.22
2023-02-26T09:58:51.052Z,5.80
2023-02-26T09:59:54.264Z,5.27
2023-02-26T10:01:13.195Z,5.25
2023-02-26T10:02:23.731Z,5.85
2023-02-26T10:03:38.094Z,6.02
2023-02-26T10:04:44.858Z,5.73
2023-02-26T10:06:10.857Z,5.10
2023-02-26T10:07:33.704Z,5.13
2023-02-26T10:08:41.363Z,5.47
2023-02-26T10:10:05.485Z,5.99
2023-02-26T10:11:11.315Z,5.55
2023-02-26T10:12:21.167Z,5.56
2023-02-26T10:13:31.150Z,5.62
2023-02-26T10:15:00.357Z,5.01
2023-02-26T10:16:12.265Z,4.63
2023-02-26T10:18:37.377Z,5.02
2023-02-26T10:19:43.207Z,4.99
2023-02-26T10:20:58.820Z,5.10
2023-02-26T10:22:20.253Z,5.01
2023-02-26T10:23:45.346Z,4.80
2023-02-26T10:24:59.669Z,4.88
2023-02-26T10:26:21.293Z,5.18
2023-02-26T10:27:28.711Z,5.07
2023-02-26T10:28:38.417Z,5.38
2023-02-26T10:29:44.544Z,5.62
2023-02-26T10:32:45.159Z,5.73
2023-02-26T10:33:54.451Z,5.72
2023-02-26T10:35:01.629Z,5.97
2023-02-26T10:36:25.926Z,5.97
2023-02-26T10:37:50.640Z,5.72
2023-02-26T10:39:00.123Z,5.70
2023-02-26T10:40:37.657Z,5.74
2023-02-26T10:41:41.375Z,5.70
2023-02-26T10:44:31.106Z,5.36
2023-02-26T10:45:57.637Z,5.12
2023-02-26T10:49:05.464Z,5.12
2023-02-26T10:50:15.445Z,5.17
2023-02-26T10:51:25.704Z,5.27
2023-02-26T10:52:31.000Z,5.38
2023-02-26T10:53:35.563Z,5.22
2023-02-26T10:54:41.449Z,5.28
2023-02-26T10:55:50.030Z,5.48
2023-02-26T10:57:00.527Z,5.54
2023-02-26T10:58:06.805Z,5.53
2023-02-26T10:59:09.674Z,5.59
2023-02-26T11:00:18.867Z,5.47
2023-02-26T11:01:26.033Z,5.60
2023-02-26T11:02:44.869Z,5.54
2023-02-26T11:03:51.905Z,5.52
2023-02-26T11:05:07.226Z,5.43
2023-02-26T11:06:05.544Z,5.35
2023-02-26T11:07:09.420Z,5.42
2023-02-26T11:08:23.126Z,5.53
2023-02-26T11:09:28.874Z,5.32
2023-02-26T11:10:40.547Z,5.56
2023-02-26T11:11:55.844Z,5.70
2023-02-26T11:12:59.814Z,5.49
2023-02-26T11:14:08.477Z,5.53
2023-02-26T11:15:20.978Z,5.52
2023-02-26T11:16:23.643Z,5.49
2023-02-26T11:17:31.225Z,5.38
2023-02-26T11:18:43.857Z,5.43
2023-02-26T11:19:50.001Z,5.44
2023-02-26T11:21:00.527Z,5.45
2023-02-26T11:22:08.199Z,5.47
2023-02-26T11:23:15.555Z,5.60
2023-02-26T11:24:40.293Z,5.49
2023-02-26T11:25:44.347Z,5.67
2023-02-26T11:26:50.211Z,5.82
2023-02-26T11:27:57.101Z,5.78
2023-02-26T11:29:01.263Z,5.68
2023-02-26T11:30:19.331Z,5.73
2023-02-26T11:31:24.429Z,5.88
2023-02-26T11:32:36.061Z,5.85
2023-02-26T11:33:41.982Z,5.90
2023-02-26T11:34:51.675Z,5.86
2023-02-26T11:35:57.502Z,5.82
2023-02-26T11:37:02.092Z,5.85
2023-02-26T11:38:04.697Z,5.87
2023-02-26T11:39:10.197Z,5.92
2023-02-26T11:40:16.792Z,5.84
2023-02-26T11:41:19.912Z,5.74
2023-02-26T11:42:23.888Z,5.80
2023-02-26T11:43:30.106Z,5.97
2023-02-26T11:44:39.786Z,5.98
2023-02-26T11:45:45.355Z,6.30
2023-02-26T11:46:53.917Z,6.47
2023-02-26T11:48:10.179Z,6.52
2023-02-26T11:49:15.856Z,6.45
2023-02-26T11:50:23.181Z,6.41
2023-02-26T11:51:28.943Z,6.39
2023-02-26T11:52:38.665Z,6.59
2023-02-26T11:53:50.652Z,6.73
2023-02-26T11:54:59.743Z,6.95
2023-02-26T11:56:06.008Z,6.79
2023-02-26T11:57:15.046Z,6.70
2023-02-26T11:58:24.107Z,6.71
2023-02-26T11:59:26.744Z,6.77
2023-02-26T12:00:32.808Z,6.63
2023-02-26T12:01:36.659Z,6.86
2023-02-26T12:02:40.272Z,6.78
2023-02-26T12:03:51.782Z,6.79
2023-02-26T12:04:57.825Z,6.80
2023-02-26T12:06:01.900Z,6.66
2023-02-26T12:07:04.191Z,6.63
2023-02-26T12:08:19.467Z,6.72
2023-02-26T12:09:26.604Z,6.65
2023-02-26T12:10:32.918Z,6.47
2023-02-26T12:12:03.456Z,6.38
2023-02-26T12:13:27.996Z,6.55
2023-02-26T12:14:34.053Z,6.65
2023-02-26T12:15:46.165Z,6.78
2023-02-26T12:17:17.157Z,6.80
2023-02-26T12:18:27.056Z,6.62
2023-02-26T12:19:54.259Z,6.32
2023-02-26T12:21:15.861Z,6.06
2023-02-26T12:22:52.081Z,5.84
2023-02-26T12:24:16.615Z,5.85
2023-02-26T12:25:47.468Z,5.79
2023-02-26T12:27:03.016Z,5.72
2023-02-26T12:28:11.858Z,5.66
2023-02-26T12:29:45.943Z,5.75
2023-02-26T12:31:16.165Z,5.81
2023-02-26T12:34:05.679Z,5.88
2023-02-26T12:35:26.971Z,5.83
2023-02-26T12:36:48.002Z,5.91
2023-02-26T12:37:59.833Z,5.87
2023-02-26T12:39:27.819Z,5.78
2023-02-26T12:40:59.170Z,5.70
2023-02-26T12:42:14.029Z,5.81
2023-02-26T12:43:19.987Z,5.75
2023-02-26T12:44:35.408Z,5.84
2023-02-26T12:45:42.410Z,5.99
2023-02-26T12:47:04.410Z,5.97
2023-02-26T12:48:16.460Z,5.91
2023-02-26T12:49:40.852Z,6.00
2023-02-26T12:51:03.358Z,5.87
2023-02-26T12:52:26.453Z,5.50
2023-02-26T12:53:44.711Z,5.55
2023-02-26T12:55:17.903Z,5.46
2023-02-26T12:56:34.003Z,5.52
2023-02-26T12:58:02.610Z,5.46
2023-02-26T12:59:25.893Z,5.36
2023-02-26T13:00:44.789Z,5.50
2023-02-26T13:02:01.396Z,5.50
2023-02-26T13:03:10.081Z,5.50
2023-02-26T13:04:21.704Z,5.55
2023-02-26T13:05:42.329Z,5.68
2023-02-26T13:07:08.600Z,5.70
2023-02-26T13:08:26.966Z,5.74
2023-02-26T13:09:55.200Z,5.78
2023-02-26T13:11:07.758Z,5.64
2023-02-26T13:12:16.875Z,5.48
2023-02-26T13:13:38.013Z,5.51
2023-02-26T13:15:16.325Z,5.55
2023-02-26T13:16:55.871Z,5.69
2023-02-26T13:18:29.494Z,5.56
2023-02-26T13:19:53.575Z,5.54
2023-02-26T13:21:00.117Z,5.47
2023-02-26T13:22:24.650Z,5.38
2023-02-26T13:23:31.162Z,5.38
2023-02-26T13:24:43.839Z,5.50
2023-02-26T13:26:00.584Z,5.43
2023-02-26T13:27:07.761Z,5.40
2023-02-26T13:28:31.683Z,5.47
2023-02-26T13:29:47.878Z,5.53
2023-02-26T13:31:00.029Z,5.52
2023-02-26T13:32:14.071Z,5.57
2023-02-26T13:33:24.715Z,5.53
2023-02-26T13:34:39.180Z,5.42
2023-02-26T13:35:42.783Z,5.34
2023-02-26T13:36:46.371Z,5.25
2023-02-26T13:37:53.115Z,5.16
2023-02-26T13:39:05.473Z,5.17
2023-02-26T13:40:21.758Z,5.10
2023-02-26T13:41:48.421Z,5.17
2023-02-26T13:42:58.465Z,5.20
2023-02-26T13:44:40.026Z,5.20
2023-02-26T13:46:05.006Z,5.34
2023-02-26T13:47:16.569Z,5.38
2023-02-26T13:48:31.244Z,5.38
2023-02-26T13:49:37.549Z,5.45
2023-02-26T13:51:17.590Z,5.35
2023-02-26T13:52:27.508Z,5.36
2023-02-26T13:53:42.300Z,5.51
2023-02-26T13:54:46.435Z,5.54
2023-02-26T13:55:49.170Z,5.59
2023-02-26T13:58:30.499Z,5.76
2023-02-26T13:59:39.695Z,5.50
2023-02-26T14:00:48.545Z,5.47
2023-02-26T14:02:06.037Z,5.55
2023-02-26T14:03:14.927Z,5.53
2023-02-26T14:04:24.882Z,5.54
2023-02-26T14:05:38.520Z,5.44
2023-02-26T14:06:45.397Z,5.42
2023-02-26T14:07:51.157Z,5.49
2023-02-26T14:08:59.206Z,5.42
2023-02-26T14:10:04.882Z,5.42
2023-02-26T14:11:19.618Z,5.57
2023-02-26T14:12:25.798Z,5.69
2023-02-26T14:13:37.344Z,5.73
2023-02-26T14:14:42.067Z,5.67
2023-02-26T14:16:23.185Z,5.62
2023-02-26T14:17:36.194Z,5.71
2023-02-26T14:19:59.284Z,6.01
2023-02-26T14:21:29.110Z,5.83
2023-02-26T14:22:35.953Z,5.89
2023-02-26T14:23:41.467Z,6.02
2023-02-26T14:24:47.502Z,6.07
2023-02-26T14:25:57.740Z,6.17
2023-02-26T14:27:17.792Z,6.19
2023-02-26T14:28:28.317Z,6.15
2023-02-26T14:29:40.691Z,5.97
2023-02-26T14:31:05.197Z,5.54
2023-02-26T14:32:14.530Z,5.60
2023-02-26T14:33:19.692Z,5.65
2023-02-26T14:34:29.334Z,5.77
2023-02-26T14:35:35.406Z,5.87
2023-02-26T14:36:48.517Z,6.04
2023-02-26T14:38:02.200Z,6.14
2023-02-26T14:39:09.318Z,6.02
2023-02-26T14:40:16.896Z,6.09
2023-02-26T14:41:29.321Z,6.20
2023-02-26T14:42:56.896Z,6.14
2023-02-26T14:44:06.040Z,6.13
2023-02-26T14:45:19.425Z,6.03
2023-02-26T14:46:22.415Z,6.07
2023-02-26T14:47:27.667Z,6.06
2023-02-26T14:48:32.970Z,6.17
2023-02-26T14:49:39.483Z,6.14
2023-02-26T14:51:01.515Z,6.07
2023-02-26T14:52:27.357Z,5.78
2023-02-26T14:53:48.202Z,5.69
2023-02-26T14:55:18.402Z,5.64
2023-02-26T14:56:24.362Z,5.60
2023-02-26T14:57:36.157Z,5.57
2023-02-26T14:59:06.851Z,5.51
2023-02-26T15:03:11.555Z,5.23
2023-02-26T15:04:27.769Z,5.20
2023-02-26T15:05:46.188Z,5.14
2023-02-26T15:06:58.063Z,5.10
2023-02-26T15:08:09.868Z,5.14
2023-02-26T15:09:25.142Z,5.09
2023-02-26T15:10:46.610Z,5.14
2023-02-26T15:12:04.630Z,5.14
2023-02-26T15:13:20.221Z,5.06
2023-02-26T15:14:29.173Z,5.09
2023-02-26T15:15:38.905Z,5.04
2023-02-26T15:17:02.323Z,5.07
2023-02-26T15:18:39.082Z,5.07
2023-02-26T15:19:48.800Z,5.02
2023-02-26T15:20:57.979Z,5.04
2023-02-26T15:22:31.248Z,5.10
2023-02-26T15:23:43.012Z,5.18
2023-02-26T15:24:46.789Z,5.13
2023-02-26T15:25:51.199Z,5.16
2023-02-26T15:26:58.870Z,5.11
2023-02-26T15:28:04.328Z,5.04
2023-02-26T15:29:14.494Z,5.01
2023-02-26T15:30:17.997Z,4.88
2023-02-26T15:31:24.155Z,4.90
2023-02-26T15:32:32.347Z,4.80
2023-02-26T15:33:35.112Z,4.82
2023-02-26T15:34:37.557Z,4.74
2023-02-26T15:35:41.797Z,4.70
2023-02-26T15:36:47.069Z,4.86
2023-02-26T15:37:52.845Z,4.94